Terminal Aerodrome Forecast
Issued by NWS Memphis, TN

Home | Current Version | Previous Version | Text Only | Print | Product List | Glossary On
Versions: 1 2 3 4 5 6 7 8 9 10 11 12 13 14 15 16 17 18 19 20 21 22 23 24 25 26 27 28 29
000
FTUS44 KMEG 052339
TAFMEM
TAF
KMEM 052339Z 0600/0624 07007KT P6SM OVC008
      TEMPO 0601/0604 6SM -RA
     FM060400 06006KT 3SM -RA BR OVC004
      TEMPO 0606/0610 2SM +RA
     FM061200 32009KT P6SM OVC006
      TEMPO 0612/0616 5SM -SHRA BR
     FM061600 33010KT P6SM OVC012
     FM061800 33010KT P6SM OVC020=

USA.gov is the U.S. government's official web portal to all federal, state and local government web resources and services.